createdAt,value
2019-02-24T00:00:33.539Z,958.79
2019-02-24T00:04:03.599Z,958.91
2019-02-24T00:07:33.681Z,958.98
2019-02-24T00:11:03.761Z,958.91
2019-02-24T00:14:33.709Z,958.69
2019-02-24T00:18:03.692Z,958.93
2019-02-24T00:21:33.837Z,958.68
2019-02-24T00:25:04.054Z,958.44
2019-02-24T00:28:34.115Z,958.36
2019-02-24T00:32:04.297Z,958.29
2019-02-24T00:35:34.298Z,958.3
2019-02-24T00:39:05.450Z,958.55
2019-02-24T00:42:35.558Z,958.7
2019-02-24T00:46:05.569Z,958.92
2019-02-24T00:49:35.761Z,958.77
2019-02-24T00:53:05.741Z,958.37
2019-02-24T00:56:35.732Z,958.53
2019-02-24T01:00:07.094Z,958.44
2019-02-24T01:03:37.293Z,957.91
2019-02-24T01:07:07.534Z,958.23
2019-02-24T01:10:37.604Z,958.58
2019-02-24T01:14:07.586Z,958.55
2019-02-24T01:17:37.646Z,958.09
2019-02-24T01:21:07.717Z,958.7
2019-02-24T01:24:37.659Z,958.88
2019-02-24T01:28:07.669Z,958.82
2019-02-24T01:31:37.629Z,958.53
2019-02-24T01:35:07.880Z,958.27
2019-02-24T01:38:38.011Z,958.66
2019-02-24T01:42:09.666Z,958.26
2019-02-24T01:45:39.743Z,958.58
2019-02-24T01:49:09.784Z,958.18
2019-02-24T01:52:39.894Z,958.34
2019-02-24T01:56:09.905Z,958.48
2019-02-24T01:59:39.900Z,958.77
2019-02-24T02:00:16.708Z,958.77
2019-02-24T02:03:46.696Z,958.67
2019-02-24T02:07:17.437Z,959.26
2019-02-24T02:10:47.508Z,958.84
2019-02-24T02:14:17.480Z,959.63
2019-02-24T02:17:47.574Z,958.8
2019-02-24T02:21:17.641Z,958.77
2019-02-24T02:24:47.784Z,958.8
2019-02-24T02:28:17.843Z,959.18
2019-02-24T02:31:47.823Z,959.44
2019-02-24T02:35:17.887Z,959.47
2019-02-24T02:38:47.945Z,959.55
2019-02-24T02:42:18.886Z,959.97
2019-02-24T02:45:48.970Z,960.1
2019-02-24T02:49:18.928Z,960.69
2019-02-24T02:52:48.909Z,960.23
2019-02-24T02:56:19.015Z,959.97
2019-02-24T02:59:49.150Z,959.87
2019-02-24T03:03:19.151Z,959.86
2019-02-24T03:09:11.235Z,960.34
2019-02-24T03:12:41.142Z,960.41
2019-02-24T03:16:11.265Z,960.41
2019-02-24T03:19:41.284Z,960.34
2019-02-24T03:23:11.306Z,960.57
2019-02-24T03:26:41.427Z,960.67
2019-02-24T03:30:11.512Z,960.71
2019-02-24T03:33:44.642Z,960.52
2019-02-24T03:37:15.129Z,960.35
2019-02-24T03:40:45.161Z,960.38
2019-02-24T03:44:16.440Z,960.51
2019-02-24T03:47:46.502Z,959.77
2019-02-24T03:51:16.643Z,959.56
2019-02-24T03:54:46.827Z,959.34
2019-02-24T03:58:16.934Z,959.48
2019-02-24T04:00:16.798Z,959.59
2019-02-24T04:03:46.935Z,959.22
2019-02-24T04:07:16.976Z,959.75
2019-02-24T04:10:47.067Z,959.55
2019-02-24T04:14:17.077Z,959.97
2019-02-24T04:17:47.158Z,960.81
2019-02-24T04:21:17.259Z,960.54
2019-02-24T04:24:47.330Z,960.79
2019-02-24T04:28:17.361Z,960.56
2019-02-24T04:31:47.481Z,960.08
2019-02-24T04:35:17.482Z,959.64
2019-02-24T04:38:47.524Z,960.41
2019-02-24T04:42:17.586Z,960.38
2019-02-24T04:45:48.599Z,960.26
2019-02-24T04:49:18.626Z,960.15
2019-02-24T04:52:48.760Z,960.25
2019-02-24T04:56:18.897Z,960.39
2019-02-24T04:59:48.978Z,961.04
2019-02-24T05:03:18.982Z,961.43
2019-02-24T05:06:49.145Z,961.72
2019-02-24T05:10:19.125Z,962.17
2019-02-24T05:13:49.225Z,961.41
2019-02-24T05:17:19.222Z,961.61
2019-02-24T05:20:49.366Z,961.92
2019-02-24T05:24:19.355Z,961.87
2019-02-24T05:27:49.445Z,962.22
2019-02-24T05:31:19.426Z,961.96
2019-02-24T05:34:49.534Z,962.41
2019-02-24T05:38:19.598Z,962.72
2019-02-24T05:41:49.709Z,962.52
2019-02-24T05:45:19.884Z,963.07
2019-02-24T05:48:50.853Z,963.6
2019-02-24T05:52:20.933Z,963.91
2019-02-24T05:55:50.986Z,964.11
2019-02-24T05:59:21.072Z,964.05
2019-02-24T06:00:16.264Z,964.06
2019-02-24T06:03:46.475Z,964.35
2019-02-24T06:07:16.495Z,964.48
2019-02-24T06:10:46.465Z,964.61
2019-02-24T06:14:16.420Z,965.36
2019-02-24T06:17:46.468Z,965.85
2019-02-24T06:21:16.538Z,966.27
2019-02-24T06:24:46.570Z,966.24
2019-02-24T06:28:16.500Z,966.28
2019-02-24T06:31:46.622Z,966.03
2019-02-24T06:35:16.591Z,965.97
2019-02-24T06:38:46.762Z,966.49
2019-02-24T06:42:16.895Z,966.74
2019-02-24T06:45:46.964Z,967.22
2019-02-24T06:49:18.205Z,967.09
2019-02-24T06:52:48.356Z,966.99
2019-02-24T06:56:18.380Z,967.32
2019-02-24T06:59:48.448Z,967.61
2019-02-24T07:03:18.538Z,967.63
2019-02-24T07:06:48.650Z,967.82
2019-02-24T07:10:18.720Z,968.2
2019-02-24T07:13:48.921Z,968.58
2019-02-24T07:17:18.962Z,969.39
2019-02-24T07:20:49.043Z,969.69
2019-02-24T07:24:18.980Z,969.53
2019-02-24T07:27:48.935Z,968.83
2019-02-24T07:31:19.096Z,969.61
2019-02-24T07:34:49.147Z,969.78
2019-02-24T07:38:19.157Z,970.37
2019-02-24T07:41:49.192Z,970.43
2019-02-24T07:45:19.269Z,970.7
2019-02-24T07:48:49.245Z,970.97
2019-02-24T07:52:19.252Z,970.47
2019-02-24T07:55:49.421Z,971.08
2019-02-24T07:59:19.423Z,971.09
2019-02-24T08:00:16.343Z,971.32
2019-02-24T08:03:46.424Z,971.38
2019-02-24T08:07:16.585Z,973.12
2019-02-24T08:10:46.706Z,972.81
2019-02-24T08:14:16.787Z,974.09
2019-02-24T08:17:46.938Z,973.58
2019-02-24T08:21:16.953Z,974.7
2019-02-24T08:24:47.130Z,973.46
2019-02-24T08:28:17.184Z,975.03
2019-02-24T08:31:47.212Z,974.7
2019-02-24T08:35:17.393Z,974.16
2019-02-24T08:38:47.495Z,974.78
2019-02-24T08:42:17.585Z,974.11
2019-02-24T08:45:47.666Z,974.11
2019-02-24T08:49:17.748Z,975.12
2019-02-24T08:52:48.888Z,974.35
2019-02-24T08:56:18.939Z,975.01
2019-02-24T08:59:49.100Z,974.66
2019-02-24T09:03:19.081Z,973.62
2019-02-24T09:06:49.102Z,973.6
2019-02-24T09:10:19.112Z,973.99
2019-02-24T09:13:49.144Z,974.91
2019-02-24T09:17:19.195Z,974.29
2019-02-24T09:20:49.206Z,974.81
2019-02-24T09:24:19.226Z,974.22
2019-02-24T09:27:49.297Z,974.86
2019-02-24T09:31:19.288Z,975.55
2019-02-24T09:34:49.349Z,976.37
2019-02-24T09:38:19.440Z,974.71
2019-02-24T09:41:49.431Z,975.67
2019-02-24T09:45:19.452Z,975.51
2019-02-24T09:48:49.544Z,975.44
2019-02-24T09:52:19.605Z,975.61
2019-02-24T09:55:50.855Z,975.54
2019-02-24T09:59:21.006Z,976.53
2019-02-24T10:00:16.554Z,976.86
2019-02-24T10:03:46.598Z,976.72
2019-02-24T10:07:16.648Z,975.39
2019-02-24T10:10:46.635Z,976.26
2019-02-24T10:14:16.652Z,976.04
2019-02-24T10:17:46.741Z,975.84
2019-02-24T10:21:16.846Z,976.3
2019-02-24T10:24:46.993Z,976.39
2019-02-24T10:28:17.034Z,978.01
2019-02-24T10:31:47.185Z,977.16
2019-02-24T10:35:17.226Z,976.26
2019-02-24T10:38:47.347Z,976.51
2019-02-24T10:42:17.379Z,976.68
2019-02-24T10:45:47.459Z,977.46
2019-02-24T10:49:17.503Z,977.31
2019-02-24T10:52:47.597Z,974.94
2019-02-24T10:56:17.872Z,975.62
2019-02-24T10:59:48.053Z,976.2
2019-02-24T11:03:18.047Z,975.95
2019-02-24T11:06:48.045Z,976.79
2019-02-24T11:10:18.137Z,976.82
2019-02-24T11:13:48.147Z,976.98
2019-02-24T11:17:18.178Z,976.57
2019-02-24T11:20:48.379Z,977.33
2019-02-24T11:24:18.372Z,978.28
2019-02-24T11:27:48.333Z,976.95
2019-02-24T11:31:18.352Z,978.01
2019-02-24T11:34:48.363Z,978.04
2019-02-24T11:38:18.374Z,977.18
2019-02-24T11:41:48.625Z,977.04
2019-02-24T11:45:18.686Z,977.15
2019-02-24T11:48:48.728Z,976.86
2019-02-24T11:52:18.718Z,976.9
2019-02-24T11:55:48.749Z,975.78
2019-02-24T11:59:19.850Z,976.02
2019-02-24T12:00:16.732Z,976.4
2019-02-24T12:03:46.862Z,975.98
2019-02-24T12:07:16.894Z,976.25
2019-02-24T12:10:47.024Z,977.35
2019-02-24T12:14:17.119Z,977.69
2019-02-24T12:17:47.136Z,977.38
2019-02-24T12:21:17.238Z,977.1
2019-02-24T12:24:47.308Z,976.89
2019-02-24T12:28:17.319Z,976.95
2019-02-24T12:31:56.150Z,977.32
2019-02-24T12:35:26.451Z,976.96
2019-02-24T12:38:56.522Z,976.99
2019-02-24T12:42:26.503Z,977.31
2019-02-24T12:45:56.580Z,977.81
2019-02-24T12:49:26.575Z,977.61
2019-02-24T12:52:56.496Z,977.64
2019-02-24T12:56:26.657Z,978.94
2019-02-24T12:59:57.664Z,979.52
2019-02-24T13:03:27.684Z,980.45
2019-02-24T13:06:57.795Z,980.16
2019-02-24T13:10:27.864Z,980.68
2019-02-24T13:13:58.011Z,979.58
2019-02-24T13:17:27.881Z,979.95
2019-02-24T13:20:58.071Z,979.69
2019-02-24T13:24:28.101Z,979.29
2019-02-24T13:27:58.194Z,979.21
2019-02-24T13:31:28.134Z,979.31
2019-02-24T13:34:58.195Z,979.07
2019-02-24T13:38:28.105Z,978.42
2019-02-24T13:41:58.134Z,978.27
2019-02-24T13:45:28.214Z,977.46
2019-02-24T13:48:58.392Z,977.08
2019-02-24T13:52:28.385Z,977.61
2019-02-24T13:55:58.376Z,977.04
2019-02-24T13:59:28.448Z,976.89
2019-02-24T14:00:16.887Z,976.84
2019-02-24T14:03:47.027Z,976.89
2019-02-24T14:07:17.108Z,977.73
2019-02-24T14:10:47.128Z,977.97
2019-02-24T14:14:17.158Z,978.54
2019-02-24T14:17:47.240Z,979.22
2019-02-24T14:21:17.280Z,979.1
2019-02-24T14:24:47.428Z,978.66
2019-02-24T14:28:17.424Z,977.35
2019-02-24T14:31:48.316Z,978.08
2019-02-24T14:35:18.413Z,977.7
2019-02-24T14:38:48.574Z,977.19
2019-02-24T14:42:18.593Z,977.31
2019-02-24T14:45:49.838Z,977.57
2019-02-24T14:49:20.106Z,977.87
2019-02-24T14:52:50.230Z,978.23
2019-02-24T14:56:20.285Z,978.03
2019-02-24T14:59:50.386Z,978.68
2019-02-24T15:03:21.407Z,978.73
2019-02-24T15:06:51.528Z,978.65
2019-02-24T15:10:21.658Z,978.04
2019-02-24T15:13:51.719Z,977.75
2019-02-24T15:17:21.744Z,977.87
2019-02-24T15:20:51.885Z,977.78
2019-02-24T15:24:21.901Z,977.86
2019-02-24T15:27:51.931Z,977.75
2019-02-24T15:31:22.021Z,977.89
2019-02-24T15:34:52.044Z,977.72
2019-02-24T15:38:22.053Z,977.7
2019-02-24T15:41:52.115Z,978.15
2019-02-24T15:45:22.206Z,978.38
2019-02-24T15:48:52.215Z,978.63
2019-02-24T15:52:22.305Z,978.36
2019-02-24T15:55:52.537Z,978.15
2019-02-24T15:59:22.606Z,978.44
2019-02-24T16:00:16.100Z,978.47
2019-02-24T16:03:47.177Z,978.63
2019-02-24T16:07:17.260Z,979.04
2019-02-24T16:10:47.385Z,979.58
2019-02-24T16:14:17.469Z,979.54
2019-02-24T16:17:47.549Z,979.9
2019-02-24T16:21:17.525Z,979.74
2019-02-24T16:24:47.641Z,979.56
2019-02-24T16:28:17.695Z,979.32
2019-02-24T16:31:47.862Z,979.26
2019-02-24T16:35:17.962Z,978.73
2019-02-24T16:38:48.003Z,978.66
2019-02-24T16:42:17.964Z,978.36
2019-02-24T16:45:48.140Z,978.38
2019-02-24T16:49:18.222Z,978.42
2019-02-24T16:52:48.266Z,978.1
2019-02-24T16:56:18.256Z,978.59
2019-02-24T16:59:48.347Z,978.07
2019-02-24T17:03:20.150Z,978.27
2019-02-24T17:06:51.228Z,978.44
2019-02-24T17:10:21.288Z,978.84
2019-02-24T17:13:51.470Z,977.88
2019-02-24T17:17:21.460Z,977.69
2019-02-24T17:20:51.521Z,977.69
2019-02-24T17:24:21.561Z,977.66
2019-02-24T17:27:51.722Z,977.88
2019-02-24T17:31:28.142Z,978.05
2019-02-24T17:34:58.808Z,977.77
2019-02-24T17:38:28.821Z,977.93
2019-02-24T17:41:58.897Z,976.9
2019-02-24T17:45:28.976Z,976.82
2019-02-24T17:48:58.928Z,977.48
2019-02-24T17:52:28.983Z,977.06
2019-02-24T17:55:59.081Z,976.52
2019-02-24T17:59:29.118Z,976.97
2019-02-24T18:00:18.878Z,977.17
2019-02-24T18:03:48.959Z,976.77
2019-02-24T18:07:20.018Z,977.06
2019-02-24T18:10:50.143Z,976.81
2019-02-24T18:14:20.236Z,976.8
2019-02-24T18:17:50.337Z,976.46
2019-02-24T18:21:20.464Z,976.43
2019-02-24T18:24:50.583Z,976.93
2019-02-24T18:28:20.792Z,976.7
2019-02-24T18:31:50.959Z,977.09
2019-02-24T18:35:21.030Z,977.02
2019-02-24T18:38:51.029Z,977.14
2019-02-24T18:42:21.089Z,976.78
2019-02-24T18:45:51.117Z,977.57
2019-02-24T18:49:21.177Z,977.07
2019-02-24T18:52:51.335Z,978.06
2019-02-24T18:56:21.394Z,977.3
2019-02-24T18:59:51.843Z,976.63
2019-02-24T19:03:21.954Z,976.94
2019-02-24T19:06:51.942Z,976.53
2019-02-24T19:10:22.991Z,976.61
2019-02-24T19:13:53.130Z,976.51
2019-02-24T19:17:23.143Z,976.59
2019-02-24T19:20:53.267Z,976.36
2019-02-24T19:24:23.419Z,976.58
2019-02-24T19:27:53.515Z,976.44
2019-02-24T19:31:23.504Z,976.61
2019-02-24T19:34:53.563Z,976.16
2019-02-24T19:38:23.572Z,976.47
2019-02-24T19:41:53.661Z,976.24
2019-02-24T19:45:23.850Z,976.03
2019-02-24T19:48:53.919Z,976.29
2019-02-24T19:52:24.088Z,976.44
2019-02-24T19:55:54.235Z,976.89
2019-02-24T19:59:24.226Z,976.19
2019-02-24T20:00:17.636Z,976.39
2019-02-24T20:03:47.685Z,976.35
2019-02-24T20:07:17.754Z,976.74
2019-02-24T20:10:47.983Z,976.73
2019-02-24T20:14:17.962Z,976.39
2019-02-24T20:17:48.141Z,976.06
2019-02-24T20:21:18.225Z,975.84
2019-02-24T20:24:48.324Z,976.09
2019-02-24T20:28:18.328Z,976.09
2019-02-24T20:31:48.358Z,975.99
2019-02-24T20:35:18.665Z,975.84
2019-02-24T20:38:48.865Z,975.76
2019-02-24T20:42:18.984Z,975.57
2019-02-24T20:45:49.223Z,975.5
2019-02-24T20:49:19.242Z,975.83
2019-02-24T20:52:49.370Z,976.14
2019-02-24T20:56:19.409Z,976.14
2019-02-24T20:59:49.468Z,975.86
2019-02-24T21:03:19.498Z,975.31
2019-02-24T21:06:49.506Z,975.31
2019-02-24T21:10:19.663Z,975.5
2019-02-24T21:13:50.872Z,975.21
2019-02-24T21:17:20.839Z,974.79
2019-02-24T21:20:50.982Z,974.88
2019-02-24T21:24:21.011Z,974.71
2019-02-24T21:27:51.135Z,975.45
2019-02-24T21:31:21.129Z,975.48
2019-02-24T21:34:51.218Z,975.17
2019-02-24T21:38:21.279Z,975.34
2019-02-24T21:41:51.446Z,975.11
2019-02-24T21:45:21.745Z,974.82
2019-02-24T21:48:51.884Z,974.53
2019-02-24T21:52:21.913Z,974.9
2019-02-24T21:55:52.172Z,974.62
2019-02-24T21:59:22.131Z,974.51
2019-02-24T22:00:18.160Z,974.64
2019-02-24T22:03:49.459Z,974.7
2019-02-24T22:07:19.568Z,974.75
2019-02-24T22:10:49.747Z,974.7
2019-02-24T22:14:20.726Z,974.35
2019-02-24T22:17:50.795Z,974.39
2019-02-24T22:21:20.896Z,973.94
2019-02-24T22:24:50.977Z,974.12
2019-02-24T22:28:20.992Z,973.54
2019-02-24T22:31:51.013Z,973.32
2019-02-24T22:35:21.000Z,973.09
2019-02-24T22:38:51.039Z,973.51
2019-02-24T22:42:20.993Z,972.8
2019-02-24T22:45:51.127Z,972.81
2019-02-24T22:49:21.156Z,972.7
2019-02-24T22:52:51.225Z,972.51
2019-02-24T22:56:21.325Z,972.3
2019-02-24T22:59:51.472Z,972.12
2019-02-24T23:03:22.624Z,971.99
2019-02-24T23:06:52.670Z,971.97
2019-02-24T23:10:22.809Z,972.18
2019-02-24T23:13:52.901Z,971.87
2019-02-24T23:17:23.077Z,971.99
2019-02-24T23:20:53.196Z,971.89
2019-02-24T23:24:24.122Z,972.07
2019-02-24T23:27:54.394Z,971.9
2019-02-24T23:31:24.472Z,971.87
2019-02-24T23:34:54.545Z,971.63
2019-02-24T23:38:24.680Z,971.34
2019-02-24T23:41:54.729Z,971.85
2019-02-24T23:45:24.768Z,972.02
2019-02-24T23:48:54.817Z,971.52
2019-02-24T23:52:24.818Z,971.66
2019-02-24T23:55:54.845Z,972.34
2019-02-24T23:59:24.864Z,972.16
